Time;durP1;ratioP1;P1;durP2;ratioP2;P2;SDS_P1;SDS_P2;PMS_P1;PMS_P2;Temp;Humidity;BMP_temperature;BMP_pressure;BME280_temperature;BME280_humidity;BME280_pressure;Samples;Min_cycle;Max_cycle;Signal;HPM_P1;HPM_P2
2022/02/19 00:00:57;;;;;;;9.53;4.30;;;8.30;99.90;;;;;;4454447;32;20216;-77
2022/02/19 00:03:24;;;;;;;12.80;4.90;;;8.40;99.90;;;;;;4456426;32;20404;-76
2022/02/19 00:05:51;;;;;;;14.83;4.60;;;8.40;99.90;;;;;;4455644;32;20173;-77
2022/02/19 00:08:18;;;;;;;13.83;4.73;;;8.30;99.90;;;;;;4456190;32;20182;-77
2022/02/19 00:10:45;;;;;;;11.43;4.50;;;8.40;99.90;;;;;;4454640;32;20200;-77
2022/02/19 00:13:12;;;;;;;14.17;5.17;;;8.40;99.90;;;;;;4455867;32;20202;-76
2022/02/19 00:15:39;;;;;;;14.13;4.50;;;8.40;99.90;;;;;;4454942;32;20245;-77
2022/02/19 00:18:06;;;;;;;11.17;4.70;;;8.50;99.90;;;;;;4455810;32;20197;-77
2022/02/19 00:20:33;;;;;;;8.90;4.17;;;8.60;99.90;;;;;;4457515;32;20161;-77
2022/02/19 00:23:00;;;;;;;13.20;4.60;;;8.70;99.90;;;;;;4455259;32;20448;-77
2022/02/19 00:25:27;;;;;;;12.33;4.33;;;8.70;99.90;;;;;;4454097;32;20193;-77
2022/02/19 00:27:54;;;;;;;13.60;4.67;;;8.70;99.90;;;;;;4457587;32;20183;-77
2022/02/19 00:30:21;;;;;;;12.33;4.20;;;8.70;99.90;;;;;;4454987;32;20170;-77
2022/02/19 00:32:48;;;;;;;13.53;4.47;;;8.80;99.90;;;;;;4455137;32;20409;-77
2022/02/19 00:35:15;;;;;;;9.97;4.33;;;8.80;99.90;;;;;;4455726;32;20141;-77
2022/02/19 00:37:42;;;;;;;9.33;4.20;;;8.80;99.90;;;;;;4454259;32;20357;-77
2022/02/19 00:40:10;;;;;;;14.57;4.17;;;8.90;99.90;;;;;;4455379;32;20146;-78
2022/02/19 00:42:37;;;;;;;14.73;4.20;;;9.00;99.90;;;;;;4455299;32;20238;-78
2022/02/19 00:45:05;;;;;;;10.20;3.70;;;9.10;99.90;;;;;;4453891;32;20208;-77
2022/02/19 00:47:31;;;;;;;12.93;3.60;;;9.10;99.90;;;;;;4455884;32;20365;-77
2022/02/19 00:49:58;;;;;;;8.40;3.50;;;9.20;99.90;;;;;;4453980;32;20208;-77
2022/02/19 00:52:25;;;;;;;9.33;3.53;;;9.40;99.90;;;;;;4454174;32;20381;-78
2022/02/19 00:54:52;;;;;;;7.47;3.00;;;9.50;99.90;;;;;;4455398;32;20166;-78
2022/02/19 00:57:19;;;;;;;7.50;3.10;;;9.50;99.90;;;;;;4453956;32;20173;-78
2022/02/19 00:59:46;;;;;;;5.77;2.60;;;9.70;99.90;;;;;;4454737;32;20532;-78
2022/02/19 01:02:13;;;;;;;6.90;2.60;;;9.80;99.90;;;;;;4455377;32;20178;-77
2022/02/19 01:04:39;;;;;;;6.20;2.37;;;9.90;99.90;;;;;;4455953;32;20187;-78
2022/02/19 01:07:06;;;;;;;3.57;1.80;;;10.00;99.90;;;;;;4457153;32;20135;-77
2022/02/19 01:09:34;;;;;;;4.30;1.40;;;9.70;99.90;;;;;;4454553;32;20266;-78
2022/02/19 01:12:01;;;;;;;3.33;1.20;;;9.40;99.90;;;;;;4454851;32;20170;-78
2022/02/19 01:14:28;;;;;;;2.23;1.10;;;9.20;99.90;;;;;;4455506;32;20157;-78
2022/02/19 01:16:55;;;;;;;3.80;1.13;;;9.00;99.90;;;;;;4453944;32;20197;-78
2022/02/19 01:19:21;;;;;;;4.57;1.00;;;8.90;99.90;;;;;;4455354;32;20202;-78
2022/02/19 01:21:48;;;;;;;4.20;1.07;;;8.70;99.90;;;;;;4455543;32;20146;-77
2022/02/19 01:24:15;;;;;;;2.20;0.70;;;8.80;99.90;;;;;;4453990;32;20191;-77
2022/02/19 01:26:42;;;;;;;4.63;1.00;;;8.80;99.90;;;;;;4453680;32;20170;-77
2022/02/19 01:29:09;;;;;;;3.63;0.83;;;8.90;99.90;;;;;;4456079;32;20172;-77
2022/02/19 01:31:36;;;;;;;2.73;0.83;;;9.10;99.90;;;;;;4453074;32;20204;-77
2022/02/19 01:34:02;;;;;;;4.20;1.00;;;9.00;99.90;;;;;;4453487;32;20188;-77
2022/02/19 01:36:30;;;;;;;3.00;1.07;;;9.10;99.90;;;;;;4455017;32;20162;-77
2022/02/19 01:38:57;;;;;;;5.53;1.03;;;9.20;99.90;;;;;;4440707;32;20173;-78
2022/02/19 01:41:24;;;;;;;3.70;1.13;;;9.20;99.90;;;;;;4454491;32;20213;-77
2022/02/19 01:43:51;;;;;;;4.07;1.10;;;9.20;99.90;;;;;;4453336;32;20174;-78
2022/02/19 01:46:17;;;;;;;4.50;0.93;;;9.20;99.90;;;;;;4454610;32;20392;-78
2022/02/19 01:48:44;;;;;;;1.20;1.00;;;9.20;99.90;;;;;;4453722;32;20172;-78
2022/02/19 01:51:17;;;;;;;1.90;1.10;;;9.30;99.90;;;;;;4453620;32;20186;-78
2022/02/19 01:53:44;;;;;;;2.63;0.80;;;9.30;99.90;;;;;;4453300;32;20231;-78
2022/02/19 01:56:12;;;;;;;3.20;1.07;;;9.30;99.90;;;;;;4453682;32;20484;-78
2022/02/19 01:58:39;;;;;;;3.17;1.10;;;9.30;99.90;;;;;;4453537;32;20230;-78
2022/02/19 02:01:07;;;;;;;4.20;1.20;;;9.30;99.90;;;;;;4455742;32;20189;-78
2022/02/19 02:03:34;;;;;;;3.27;0.80;;;9.30;99.90;;;;;;4455394;32;20224;-78
2022/02/19 02:06:01;;;;;;;3.30;0.90;;;9.30;99.90;;;;;;4453678;32;20446;-78
2022/02/19 02:08:30;;;;;;;3.87;1.00;;;9.40;99.90;;;;;;4455598;32;20424;-78
2022/02/19 02:10:56;;;;;;;1.20;0.90;;;9.50;99.90;;;;;;4454826;32;20393;-78
2022/02/19 02:13:23;;;;;;;2.27;0.80;;;9.40;99.90;;;;;;4453157;32;20555;-78
2022/02/19 02:15:52;;;;;;;1.97;0.97;;;9.50;99.90;;;;;;4454672;32;20185;-78
2022/02/19 02:18:19;;;;;;;4.43;1.00;;;9.50;99.90;;;;;;4453397;32;20512;-78
2022/02/19 02:20:46;;;;;;;2.23;0.90;;;9.60;99.50;;;;;;4455458;32;20172;-78
2022/02/19 02:23:14;;;;;;;1.87;0.80;;;9.50;99.90;;;;;;4454387;32;20240;-78
2022/02/19 02:25:42;;;;;;;1.30;0.70;;;9.50;99.90;;;;;;4454558;32;20512;-78
2022/02/19 02:28:10;;;;;;;3.63;0.90;;;9.50;98.10;;;;;;4454646;32;20161;-78
2022/02/19 02:30:37;;;;;;;3.77;1.00;;;9.50;96.50;;;;;;4454462;32;20215;-78
2022/02/19 02:33:06;;;;;;;3.80;0.90;;;9.50;95.00;;;;;;4453990;32;20209;-79
2022/02/19 02:35:34;;;;;;;2.10;0.97;;;9.50;96.30;;;;;;4454387;32;20142;-79
2022/02/19 02:38:02;;;;;;;5.87;1.03;;;9.40;96.10;;;;;;4454773;32;20173;-79
2022/02/19 02:40:30;;;;;;;3.07;1.00;;;9.40;97.00;;;;;;4455013;32;20144;-79
2022/02/19 02:42:58;;;;;;;4.53;0.90;;;9.30;97.20;;;;;;4454536;32;20178;-79
2022/02/19 02:45:25;;;;;;;3.57;0.93;;;9.20;97.60;;;;;;4454859;32;20142;-79
2022/02/19 02:48:12;;;;;;;5.60;1.00;;;9.20;99.30;;;;;;4454048;32;20181;-79
2022/02/19 02:50:39;;;;;;;1.27;0.80;;;9.10;99.80;;;;;;4453738;32;20171;-79
2022/02/19 02:53:26;;;;;;;1.43;0.70;;;9.10;99.80;;;;;;4456575;32;20148;-79
2022/02/19 02:55:54;;;;;;;3.73;0.90;;;9.00;99.50;;;;;;4457015;32;20440;-79
2022/02/19 02:58:21;;;;;;;3.63;0.90;;;9.00;98.60;;;;;;4456878;32;20192;-79
2022/02/19 03:00:48;;;;;;;4.30;0.80;;;9.00;98.60;;;;;;4458352;32;20166;-79
2022/02/19 03:03:15;;;;;;;2.93;1.07;;;9.00;98.60;;;;;;4456737;32;20406;-79
2022/02/19 03:05:42;;;;;;;4.77;1.03;;;9.00;98.30;;;;;;4455524;32;20174;-79
2022/02/19 03:08:09;;;;;;;4.93;1.60;;;9.00;98.80;;;;;;4457740;32;20189;-79
2022/02/19 03:10:36;;;;;;;2.17;1.00;;;9.00;98.20;;;;;;4455581;32;20175;-79
2022/02/19 03:13:03;;;;;;;2.87;1.00;;;9.00;97.80;;;;;;4455456;32;20173;-78
2022/02/19 03:15:30;;;;;;;3.53;0.90;;;9.00;97.60;;;;;;4457153;32;20198;-79
2022/02/19 03:17:56;;;;;;;6.07;0.80;;;9.00;98.10;;;;;;4458600;32;20354;-79
2022/02/19 03:20:24;;;;;;;3.40;1.00;;;8.90;98.30;;;;;;4457961;32;20169;-79
2022/02/19 03:22:51;;;;;;;3.57;1.00;;;8.90;99.20;;;;;;4455614;32;20204;-79
2022/02/19 03:25:18;;;;;;;2.77;0.80;;;8.90;99.60;;;;;;4456830;32;20281;-80
2022/02/19 03:27:46;;;;;;;7.20;1.03;;;8.80;99.90;;;;;;4455141;32;20174;-78
2022/02/19 03:30:14;;;;;;;3.27;1.00;;;8.70;99.20;;;;;;4456483;32;20166;-78
2022/02/19 03:32:41;;;;;;;3.80;1.20;;;8.70;99.90;;;;;;4454956;32;20170;-78
2022/02/19 03:35:09;;;;;;;2.33;0.80;;;8.80;98.70;;;;;;4458025;32;20183;-79
2022/02/19 03:37:38;;;;;;;1.80;1.00;;;8.80;98.10;;;;;;4455325;32;20181;-79
2022/02/19 03:40:06;;;;;;;4.03;1.00;;;8.80;98.80;;;;;;4455294;32;20170;-78
2022/02/19 03:42:37;;;;;;;6.17;1.10;;;8.80;98.10;;;;;;4455113;32;20197;-78
2022/02/19 03:45:08;;;;;;;2.97;1.10;;;8.80;97.40;;;;;;4456656;32;20197;-78
2022/02/19 03:47:35;;;;;;;3.87;0.90;;;8.90;96.90;;;;;;4457895;32;20184;-78
2022/02/19 03:50:04;;;;;;;7.07;0.97;;;8.80;97.50;;;;;;4456450;32;20495;-78
2022/02/19 03:52:30;;;;;;;3.97;1.13;;;8.80;97.30;;;;;;4458016;32;20160;-78
2022/02/19 03:54:57;;;;;;;4.50;1.03;;;8.70;96.40;;;;;;4456539;32;20265;-80
2022/02/19 03:57:24;;;;;;;3.10;0.93;;;8.80;94.80;;;;;;4455666;32;20220;-77
2022/02/19 03:59:51;;;;;;;3.33;1.00;;;8.80;90.40;;;;;;4455174;32;20193;-78
2022/02/19 04:02:18;;;;;;;3.83;1.00;;;8.80;90.30;;;;;;4454490;32;20257;-77
2022/02/19 04:04:45;;;;;;;2.07;0.90;;;8.80;90.10;;;;;;4456383;32;20176;-78
2022/02/19 04:07:12;;;;;;;3.43;0.73;;;8.70;92.00;;;;;;4456511;32;20146;-78
2022/02/19 04:09:39;;;;;;;3.43;0.70;;;8.70;93.10;;;;;;4456181;32;20170;-78
2022/02/19 04:12:07;;;;;;;2.57;0.90;;;8.60;94.30;;;;;;4455112;32;20165;-78
2022/02/19 04:14:34;;;;;;;3.43;0.93;;;8.50;95.90;;;;;;4455215;32;20567;-78
2022/02/19 04:17:01;;;;;;;1.73;0.80;;;8.50;96.90;;;;;;4455386;32;20165;-78
2022/02/19 04:19:28;;;;;;;4.30;0.97;;;8.40;97.50;;;;;;4456084;32;20207;-78
2022/02/19 04:21:55;;;;;;;1.97;0.97;;;8.40;98.80;;;;;;4455153;32;20209;-78
2022/02/19 04:24:21;;;;;;;4.00;1.20;;;8.40;97.90;;;;;;4454979;32;20566;-78
2022/02/19 04:26:48;;;;;;;3.17;1.00;;;8.40;98.90;;;;;;4454253;32;20170;-77
2022/02/19 04:29:15;;;;;;;3.53;0.90;;;8.40;98.20;;;;;;4455929;32;20171;-77
2022/02/19 04:31:42;;;;;;;4.17;1.20;;;8.40;98.20;;;;;;4453902;32;20582;-78
2022/02/19 04:34:09;;;;;;;3.43;0.93;;;8.40;97.20;;;;;;4454868;32;20208;-78
2022/02/19 04:36:36;;;;;;;2.67;0.87;;;8.50;96.10;;;;;;4455833;32;20146;-78
2022/02/19 04:39:03;;;;;;;3.30;1.00;;;8.50;95.80;;;;;;4455757;32;20465;-77
2022/02/19 04:41:30;;;;;;;3.47;1.07;;;8.50;96.20;;;;;;4455148;32;20570;-77
2022/02/19 04:43:57;;;;;;;5.17;1.03;;;8.50;96.10;;;;;;4454045;32;20503;-77
2022/02/19 04:46:23;;;;;;;5.63;1.10;;;8.50;96.10;;;;;;4455664;32;20191;-77
2022/02/19 04:48:50;;;;;;;5.30;1.10;;;8.50;95.30;;;;;;4456029;32;20143;-78
2022/02/19 04:51:17;;;;;;;3.70;0.90;;;8.50;95.50;;;;;;4454286;32;20168;-78
2022/02/19 04:53:44;;;;;;;3.07;0.90;;;8.50;95.20;;;;;;4454571;32;20220;-77
2022/02/19 04:56:11;;;;;;;4.70;1.00;;;8.50;94.70;;;;;;4455688;32;20206;-77
2022/02/19 04:58:38;;;;;;;4.40;1.50;;;8.50;95.60;;;;;;4456014;32;20171;-77
2022/02/19 05:01:05;;;;;;;5.47;1.10;;;8.40;94.50;;;;;;4455284;32;20519;-78
2022/02/19 05:03:32;;;;;;;4.27;1.13;;;8.50;94.20;;;;;;4456776;32;20222;-78
2022/02/19 05:05:59;;;;;;;7.13;1.40;;;8.50;93.80;;;;;;4455929;32;20500;-78
2022/02/19 05:08:25;;;;;;;7.63;1.47;;;8.40;93.80;;;;;;4456186;32;20169;-78
2022/02/19 05:10:52;;;;;;;2.67;0.90;;;8.40;93.50;;;;;;4442850;32;20192;-78
2022/02/19 05:13:19;;;;;;;6.13;1.40;;;8.30;93.20;;;;;;4453805;32;20530;-77
2022/02/19 05:15:46;;;;;;;3.57;1.43;;;8.30;92.40;;;;;;4455319;32;20177;-76
2022/02/19 05:18:14;;;;;;;5.67;1.03;;;8.30;91.60;;;;;;4455737;32;20233;-76
2022/02/19 05:20:43;;;;;;;5.17;0.90;;;8.40;89.80;;;;;;4455927;32;20141;-75
2022/02/19 05:23:10;;;;;;;5.13;1.10;;;8.40;87.80;;;;;;4453995;32;20201;-75
2022/02/19 05:25:45;;;;;;;4.93;1.30;;;8.30;89.80;;;;;;4453829;32;20185;-76
2022/02/19 05:28:12;;;;;;;3.70;1.03;;;8.30;89.90;;;;;;4455212;32;20196;-75
2022/02/19 05:30:39;;;;;;;4.87;1.33;;;8.30;90.70;;;;;;4453907;32;20203;-75
2022/02/19 05:33:06;;;;;;;3.10;1.17;;;8.20;91.00;;;;;;4454322;32;20185;-76
2022/02/19 05:35:33;;;;;;;5.47;1.07;;;8.30;91.60;;;;;;4454636;32;20185;-76
2022/02/19 05:38:00;;;;;;;4.77;1.50;;;8.20;91.80;;;;;;4455727;32;20193;-77
2022/02/19 05:40:28;;;;;;;5.17;1.03;;;8.20;92.00;;;;;;4453498;32;20542;-77
2022/02/19 05:42:54;;;;;;;6.20;1.03;;;8.20;92.60;;;;;;4453144;32;20587;-76
2022/02/19 05:45:21;;;;;;;4.60;1.13;;;8.20;88.90;;;;;;4453479;32;20241;-75
2022/02/19 05:47:49;;;;;;;3.77;1.00;;;8.20;87.40;;;;;;4454837;32;20433;-75
2022/02/19 05:50:15;;;;;;;4.13;1.30;;;8.10;87.20;;;;;;4455611;32;20176;-75
2022/02/19 05:52:47;;;;;;;3.73;1.10;;;8.10;88.40;;;;;;4454849;32;20237;-76
2022/02/19 05:55:14;;;;;;;5.40;1.23;;;8.00;85.20;;;;;;4440697;32;20463;-76
2022/02/19 05:57:42;;;;;;;4.73;1.20;;;8.00;85.50;;;;;;4454490;32;20144;-76
2022/02/19 06:00:10;;;;;;;6.33;1.30;;;8.00;83.60;;;;;;4454650;32;20177;-75
2022/02/19 06:02:37;;;;;;;3.03;0.90;;;8.00;81.60;;;;;;4453149;32;20450;-75
2022/02/19 06:05:04;;;;;;;6.27;1.30;;;8.00;80.10;;;;;;4453586;32;20174;-75
2022/02/19 06:07:31;;;;;;;7.03;1.27;;;8.00;78.10;;;;;;4456387;32;20150;-75
2022/02/19 06:09:58;;;;;;;3.20;1.30;;;8.00;76.50;;;;;;4453578;32;20164;-73
2022/02/19 06:12:25;;;;;;;4.27;1.17;;;8.00;77.60;;;;;;4455907;32;20158;-74
2022/02/19 06:14:52;;;;;;;7.23;1.40;;;7.90;76.90;;;;;;4455205;32;20197;-74
2022/02/19 06:17:19;;;;;;;6.37;1.20;;;7.90;76.80;;;;;;4454642;32;20206;-75
2022/02/19 06:19:46;;;;;;;4.60;1.40;;;7.90;76.20;;;;;;4453257;32;20237;-75
2022/02/19 06:22:13;;;;;;;3.70;1.20;;;7.90;76.70;;;;;;4455261;32;20167;-75
2022/02/19 06:24:40;;;;;;;4.07;1.17;;;7.90;76.90;;;;;;4452770;32;20191;-75
2022/02/19 06:27:07;;;;;;;6.30;1.37;;;7.90;77.40;;;;;;4456941;32;20189;-75
2022/02/19 06:29:34;;;;;;;4.93;1.30;;;7.80;79.00;;;;;;4456296;32;20524;-75
2022/02/19 06:32:01;;;;;;;5.83;1.37;;;7.80;78.30;;;;;;4455937;32;20228;-75
2022/02/19 06:34:28;;;;;;;3.60;1.20;;;7.80;79.50;;;;;;4444293;32;20173;-75
2022/02/19 06:36:55;;;;;;;4.80;1.20;;;7.80;81.00;;;;;;4453320;32;20515;-76
2022/02/19 06:39:22;;;;;;;4.17;1.20;;;7.70;82.20;;;;;;4451049;32;20204;-76
2022/02/19 06:41:49;;;;;;;2.97;1.20;;;7.70;84.70;;;;;;4457344;32;20511;-76
2022/02/19 06:44:16;;;;;;;4.03;1.00;;;7.70;82.40;;;;;;4456394;32;20196;-76
2022/02/19 06:46:43;;;;;;;5.07;1.20;;;7.80;82.00;;;;;;4457973;32;20162;-75
2022/02/19 06:49:10;;;;;;;4.20;1.27;;;7.70;84.00;;;;;;4455627;32;20251;-75
2022/02/19 06:51:37;;;;;;;4.83;1.10;;;7.70;83.10;;;;;;4455310;32;20572;-74
2022/02/19 06:54:04;;;;;;;7.37;1.10;;;7.70;82.10;;;;;;4457316;32;20403;-75
2022/02/19 06:56:32;;;;;;;4.00;1.10;;;7.70;81.30;;;;;;4456450;32;20185;-76
2022/02/19 06:58:59;;;;;;;6.37;1.20;;;7.70;81.80;;;;;;4456217;32;20195;-76
2022/02/19 07:01:27;;;;;;;4.97;1.17;;;7.70;78.90;;;;;;4458590;32;20174;-75
2022/02/19 07:03:56;;;;;;;5.50;1.20;;;7.70;78.90;;;;;;4457113;32;20210;-76
2022/02/19 07:06:24;;;;;;;6.87;1.43;;;7.70;80.10;;;;;;4457201;32;20497;-75
2022/02/19 07:08:51;;;;;;;3.90;1.13;;;7.70;81.30;;;;;;4456044;32;20204;-76
2022/02/19 07:11:18;;;;;;;3.33;1.07;;;7.70;80.10;;;;;;4457895;32;20197;-76
2022/02/19 07:13:45;;;;;;;5.47;1.17;;;7.70;80.90;;;;;;4457455;32;20165;-75
2022/02/19 07:16:12;;;;;;;3.93;1.27;;;7.70;79.50;;;;;;4456610;32;20172;-75
2022/02/19 07:18:39;;;;;;;3.53;1.10;;;7.70;79.50;;;;;;4456593;32;20452;-75
2022/02/19 07:21:06;;;;;;;5.30;1.20;;;7.70;79.60;;;;;;4455887;32;20172;-75
2022/02/19 07:23:33;;;;;;;4.33;1.30;;;7.70;79.00;;;;;;4455408;32;20183;-75
2022/02/19 07:26:00;;;;;;;6.10;1.20;;;7.70;80.10;;;;;;4456603;32;20226;-75
2022/02/19 07:28:27;;;;;;;3.87;1.20;;;7.70;79.10;;;;;;4455912;32;20185;-75
2022/02/19 07:30:54;;;;;;;4.30;1.10;;;7.80;78.70;;;;;;4454928;32;20297;-77
2022/02/19 07:33:21;;;;;;;3.40;1.00;;;7.80;78.40;;;;;;4456648;32;20162;-77
2022/02/19 07:35:48;;;;;;;5.00;1.47;;;7.80;80.00;;;;;;4455417;32;20504;-77
2022/02/19 07:38:15;;;;;;;4.00;1.27;;;7.70;80.10;;;;;;4448528;32;20213;-77
2022/02/19 07:40:42;;;;;;;5.27;1.27;;;7.70;79.20;;;;;;4440383;32;20187;-77
2022/02/19 07:43:09;;;;;;;4.53;1.10;;;7.80;80.40;;;;;;4441266;32;20168;-78
2022/02/19 07:45:35;;;;;;;5.13;1.30;;;7.80;79.80;;;;;;4440768;32;20539;-77
2022/02/19 07:48:02;;;;;;;2.87;0.90;;;7.70;79.70;;;;;;4441469;32;20181;-77
2022/02/19 07:58:46;;;;;;;5.70;1.23;;;7.80;80.30;;;;;;4455928;32;20302;-76
2022/02/19 08:01:13;;;;;;;4.93;1.37;;;7.80;80.90;;;;;;4449202;32;20200;-78
2022/02/19 08:03:40;;;;;;;5.00;1.40;;;7.80;80.30;;;;;;4455383;32;20170;-76
2022/02/19 08:06:07;;;;;;;5.40;1.37;;;7.80;81.90;;;;;;4454630;32;20176;-75
2022/02/19 08:08:35;;;;;;;2.70;1.07;;;7.80;82.30;;;;;;4457902;32;20148;-75
2022/02/19 08:11:03;;;;;;;4.73;1.10;;;7.80;82.70;;;;;;4451172;32;20277;-76
2022/02/19 08:13:30;;;;;;;2.93;1.17;;;7.80;82.40;;;;;;4443251;32;20174;-75
2022/02/19 08:15:57;;;;;;;3.80;1.30;;;7.80;83.10;;;;;;4447908;32;20170;-75
2022/02/19 08:18:24;;;;;;;4.70;1.30;;;7.80;82.70;;;;;;4447856;32;20162;-75
2022/02/19 08:20:52;;;;;;;3.57;1.20;;;7.80;83.40;;;;;;4443149;32;20388;-75
2022/02/19 08:23:20;;;;;;;3.10;1.17;;;7.80;84.20;;;;;;4440650;32;20178;-75
2022/02/19 08:25:53;;;;;;;2.37;1.00;;;7.90;84.70;;;;;;4438350;32;20203;-76
2022/02/19 08:28:21;;;;;;;5.53;1.30;;;8.00;82.30;;;;;;4438664;32;20205;-76
2022/02/19 08:30:50;;;;;;;4.10;1.20;;;8.00;83.60;;;;;;4444342;32;20454;-76
2022/02/19 08:33:18;;;;;;;4.47;1.27;;;8.20;83.40;;;;;;4447426;32;20178;-76
2022/02/19 08:35:45;;;;;;;5.60;1.20;;;8.20;83.50;;;;;;4447640;32;20167;-75
2022/02/19 08:38:12;;;;;;;5.37;1.17;;;8.10;82.10;;;;;;4448986;32;20177;-77
2022/02/19 08:40:40;;;;;;;3.47;1.17;;;8.10;84.30;;;;;;4446059;32;20169;-76
2022/02/19 08:43:08;;;;;;;5.70;1.40;;;8.10;84.80;;;;;;4440129;32;20185;-76
2022/02/19 08:45:35;;;;;;;4.27;1.37;;;8.10;84.90;;;;;;4438512;32;20199;-75
2022/02/19 08:48:04;;;;;;;3.03;1.23;;;8.10;83.90;;;;;;4440477;32;20185;-75
2022/02/19 08:50:38;;;;;;;6.43;1.37;;;8.10;84.50;;;;;;4437728;32;20238;-75
2022/02/19 08:53:09;;;;;;;4.03;1.10;;;8.00;85.50;;;;;;4441483;32;20434;-75
2022/02/19 08:55:36;;;;;;;2.87;1.10;;;8.00;86.00;;;;;;4444782;32;20214;-76
2022/02/19 08:58:03;;;;;;;3.57;1.13;;;8.00;84.90;;;;;;4438357;32;20189;-76
2022/02/19 09:00:30;;;;;;;4.83;1.30;;;7.90;85.10;;;;;;4439072;32;20477;-76
2022/02/19 09:02:58;;;;;;;4.00;1.10;;;7.80;84.80;;;;;;4437602;32;20184;-76
2022/02/19 09:05:26;;;;;;;4.00;1.17;;;7.90;84.50;;;;;;4441079;32;20220;-78
2022/02/19 09:07:54;;;;;;;6.73;1.00;;;7.90;85.20;;;;;;4439132;32;20183;-78
2022/02/19 09:10:21;;;;;;;2.27;1.00;;;8.10;84.80;;;;;;4437588;32;20193;-78
2022/02/19 09:12:49;;;;;;;3.93;1.03;;;8.20;81.40;;;;;;4437769;32;20206;-79
2022/02/19 09:15:19;;;;;;;2.83;1.10;;;8.20;82.70;;;;;;4440755;32;20223;-79
2022/02/19 09:17:47;;;;;;;4.93;1.20;;;8.10;82.70;;;;;;4439787;32;20204;-78
2022/02/19 09:20:15;;;;;;;3.00;1.00;;;8.10;82.20;;;;;;4441108;32;20174;-77
2022/02/19 09:22:42;;;;;;;3.40;1.27;;;8.10;81.20;;;;;;4442154;32;20252;-77
2022/02/19 09:25:11;;;;;;;3.23;1.10;;;8.30;82.20;;;;;;4442982;32;20163;-76
2022/02/19 09:27:39;;;;;;;6.43;1.00;;;8.40;82.20;;;;;;4440873;32;20146;-76
2022/02/19 09:30:08;;;;;;;2.90;1.00;;;8.40;81.40;;;;;;4438005;32;20210;-75
2022/02/19 09:32:35;;;;;;;5.10;1.10;;;8.30;81.10;;;;;;4437640;32;20253;-75
2022/02/19 09:35:03;;;;;;;3.87;1.23;;;8.40;82.70;;;;;;4438306;32;20171;-76
2022/02/19 09:37:29;;;;;;;3.67;1.07;;;8.30;81.60;;;;;;4437899;32;20198;-76
2022/02/19 09:40:01;;;;;;;3.70;0.97;;;8.50;81.90;;;;;;4438302;32;20170;-76
2022/02/19 09:42:27;;;;;;;3.23;1.13;;;8.50;80.30;;;;;;4437810;32;20174;-76
2022/02/19 09:44:56;;;;;;;4.53;1.10;;;8.50;81.70;;;;;;4439550;32;20197;-76
2022/02/19 09:47:28;;;;;;;7.73;1.17;;;8.50;81.90;;;;;;4439612;32;20160;-75
2022/02/19 09:49:57;;;;;;;4.27;1.30;;;8.40;81.50;;;;;;4440737;32;20155;-75
2022/02/19 09:52:24;;;;;;;3.33;0.90;;;8.30;82.50;;;;;;4439760;32;20198;-75
2022/02/19 09:54:56;;;;;;;5.13;1.40;;;8.30;83.60;;;;;;4439700;32;20225;-75
2022/02/19 09:57:23;;;;;;;3.73;1.10;;;8.40;83.70;;;;;;4440259;32;20138;-76
2022/02/19 09:59:50;;;;;;;4.60;1.10;;;8.30;82.60;;;;;;4439082;32;20162;-77
2022/02/19 10:02:27;;;;;;;4.73;1.40;;;8.20;83.30;;;;;;4441105;32;20223;-76
2022/02/19 10:04:55;;;;;;;4.20;1.07;;;8.20;84.70;;;;;;4441559;32;20182;-76
2022/02/19 10:07:22;;;;;;;4.40;1.13;;;8.20;84.70;;;;;;4443421;32;20539;-75
2022/02/19 10:09:50;;;;;;;5.53;1.03;;;8.10;84.60;;;;;;4440524;32;20170;-77
2022/02/19 10:12:17;;;;;;;4.50;1.10;;;8.10;85.10;;;;;;4440809;32;20179;-77
2022/02/19 10:14:46;;;;;;;4.97;1.20;;;8.10;84.90;;;;;;4442777;32;20472;-77
2022/02/19 10:17:22;;;;;;;7.63;1.03;;;8.20;84.20;;;;;;4441014;32;20196;-77
2022/02/19 10:19:58;;;;;;;3.37;1.00;;;8.10;85.80;;;;;;4442387;32;20542;-76
2022/02/19 10:22:27;;;;;;;5.37;1.20;;;8.10;86.70;;;;;;4442104;32;20200;-76
2022/02/19 10:25:13;;;;;;;3.10;0.90;;;8.10;87.80;;;;;;4440787;32;20201;-76
2022/02/19 10:27:55;;;;;;;2.43;0.93;;;8.10;87.20;;;;;;4440341;32;20542;-76
2022/02/19 10:30:24;;;;;;;3.37;1.00;;;8.20;88.80;;;;;;4442299;32;20189;-76
2022/02/19 10:33:00;;;;;;;4.63;1.10;;;8.20;88.50;;;;;;4440172;32;20197;-77
2022/02/19 10:35:41;;;;;;;3.40;0.90;;;8.20;88.20;;;;;;4442454;32;20167;-77
2022/02/19 10:38:13;;;;;;;3.63;1.23;;;8.20;86.60;;;;;;4441233;32;20184;-75
2022/02/19 10:40:46;;;;;;;2.37;1.10;;;8.20;89.70;;;;;;4449880;32;20192;-75
2022/02/19 10:43:35;;;;;;;3.13;0.90;;;8.10;90.30;;;;;;4456717;32;20172;-75
2022/02/19 10:46:03;;;;;;;4.93;1.07;;;8.10;90.30;;;;;;4457863;32;20194;-75
2022/02/19 10:48:33;;;;;;;2.73;1.13;;;8.10;90.70;;;;;;4458188;32;20161;-77
2022/02/19 10:51:16;;;;;;;5.83;1.20;;;8.10;90.90;;;;;;4456232;32;20178;-76
2022/02/19 10:53:55;;;;;;;3.10;1.00;;;8.00;91.40;;;;;;4457463;32;20167;-75
2022/02/19 10:56:22;;;;;;;3.67;1.10;;;8.00;91.60;;;;;;4458052;32;20389;-75
2022/02/19 10:59:04;;;;;;;6.00;1.30;;;8.00;92.40;;;;;;4455574;32;20177;-76
2022/02/19 11:02:11;;;;;;;4.93;1.30;;;8.00;92.20;;;;;;4455710;32;20188;-76
2022/02/19 11:04:39;;;;;;;3.03;1.17;;;8.00;92.00;;;;;;4394384;32;20161;-76
2022/02/19 11:07:06;;;;;;;3.87;1.07;;;8.00;92.60;;;;;;4379313;32;20229;-76
2022/02/19 11:09:34;;;;;;;5.73;1.47;;;8.00;92.60;;;;;;4376092;32;20182;-75
2022/02/19 11:12:01;;;;;;;5.07;1.10;;;8.10;92.20;;;;;;4378291;32;20243;-76
2022/02/19 11:14:28;;;;;;;3.13;1.27;;;8.10;92.60;;;;;;4377744;32;20201;-76
2022/02/19 11:16:57;;;;;;;5.60;1.10;;;8.00;92.80;;;;;;4384685;32;20186;-75
2022/02/19 11:19:25;;;;;;;4.70;0.90;;;7.90;92.20;;;;;;4377817;32;20191;-75
2022/02/19 11:21:54;;;;;;;2.73;1.20;;;8.00;93.00;;;;;;4378480;32;20563;-76
2022/02/19 11:24:24;;;;;;;3.40;1.13;;;7.90;93.40;;;;;;4377975;32;20232;-75
2022/02/19 11:26:52;;;;;;;4.63;1.10;;;7.90;94.10;;;;;;4372907;32;20198;-75
2022/02/19 11:29:23;;;;;;;4.30;1.20;;;7.90;93.90;;;;;;4377464;32;20193;-74
2022/02/19 11:31:52;;;;;;;3.97;1.13;;;8.00;93.70;;;;;;4377206;32;20234;-73
2022/02/19 11:34:23;;;;;;;4.73;1.47;;;8.00;93.70;;;;;;4377847;32;20225;-74
2022/02/19 11:36:51;;;;;;;2.60;1.30;;;8.10;93.60;;;;;;4372857;32;20193;-74
2022/02/19 11:39:18;;;;;;;3.00;1.20;;;8.20;93.90;;;;;;4392883;32;20242;-75
2022/02/19 11:41:46;;;;;;;2.57;1.10;;;8.20;93.90;;;;;;4441642;32;20170;-75
2022/02/19 11:44:16;;;;;;;5.67;1.30;;;8.40;93.20;;;;;;4456739;32;20536;-74
2022/02/19 11:46:43;;;;;;;3.17;1.00;;;9.10;91.80;;;;;;4457974;32;20211;-75
2022/02/19 11:49:26;;;;;;;3.80;1.43;;;9.30;87.60;;;;;;4457301;32;20365;-75
2022/02/19 11:52:13;;;;;;;5.47;1.00;;;9.10;89.20;;;;;;4454632;32;20186;-75
2022/02/19 11:55:32;;;;;;;4.23;1.10;;;8.80;91.20;;;;;;4453895;32;20237;-75
2022/02/19 11:58:05;;;;;;;5.73;1.13;;;8.60;92.20;;;;;;4448476;32;20190;-76
2022/02/19 12:00:53;;;;;;;4.70;1.13;;;8.30;93.10;;;;;;4454351;32;20257;-76
2022/02/19 12:03:26;;;;;;;5.70;1.00;;;8.20;93.80;;;;;;4455790;32;20580;-76
2022/02/19 12:06:14;;;;;;;3.33;1.20;;;8.10;94.00;;;;;;4454341;32;20177;-76
2022/02/19 12:08:51;;;;;;;9.00;1.50;;;8.10;94.10;;;;;;4454704;32;20170;-76
2022/02/19 12:11:25;;;;;;;5.17;1.20;;;8.10;93.80;;;;;;4455024;32;20583;-71
2022/02/19 12:13:54;;;;;;;2.80;1.00;;;8.10;94.60;;;;;;4454338;32;20178;-71
2022/02/19 12:16:42;;;;;;;2.50;1.17;;;8.10;94.60;;;;;;4454563;32;20245;-71
2022/02/19 12:19:11;;;;;;;2.20;1.00;;;7.90;95.70;;;;;;4456094;32;20185;-71
2022/02/19 12:21:45;;;;;;;4.53;1.20;;;7.90;96.10;;;;;;4456037;32;20252;-72
2022/02/19 12:24:18;;;;;;;4.30;1.00;;;7.80;95.80;;;;;;4453867;32;20238;-72
2022/02/19 12:29:32;;;;;;;3.37;1.10;;;7.80;96.40;;;;;;4453809;32;20183;-72
2022/02/19 12:32:12;;;;;;;3.43;1.13;;;7.70;96.90;;;;;;4455330;32;20158;-72
2022/02/19 12:34:53;;;;;;;3.67;1.10;;;7.70;97.30;;;;;;4453994;32;20478;-72
2022/02/19 12:37:21;;;;;;;3.87;1.10;;;7.70;98.40;;;;;;4455141;32;20230;-72
2022/02/19 12:39:50;;;;;;;3.13;1.23;;;7.60;99.20;;;;;;4454537;32;20177;-72
2022/02/19 12:42:22;;;;;;;2.47;1.20;;;7.60;99.90;;;;;;4455324;32;20534;-71
2022/02/19 12:45:05;;;;;;;3.10;1.10;;;7.60;99.90;;;;;;4455392;32;20212;-71
2022/02/19 12:47:32;;;;;;;4.80;1.13;;;7.50;99.90;;;;;;4453808;32;20196;-71
2022/02/19 12:50:00;;;;;;;4.70;1.10;;;7.50;99.90;;;;;;4454686;32;20178;-72
2022/02/19 12:52:27;;;;;;;3.33;1.30;;;7.40;99.90;;;;;;4453987;32;20197;-72
2022/02/19 12:54:55;;;;;;;4.67;1.73;;;7.40;99.90;;;;;;4453938;32;20186;-72
2022/02/19 12:57:23;;;;;;;3.43;1.10;;;7.40;99.90;;;;;;4454396;32;20228;-72
2022/02/19 12:59:55;;;;;;;2.33;1.10;;;7.50;99.90;;;;;;4455858;32;20150;-72
2022/02/19 13:02:24;;;;;;;1.97;1.10;;;7.60;99.90;;;;;;4455009;32;20209;-71
2022/02/19 13:04:59;;;;;;;1.90;0.97;;;7.60;99.90;;;;;;4455195;32;20408;-72
2022/02/19 13:07:28;;;;;;;2.87;1.00;;;7.80;99.70;;;;;;4453546;32;20227;-72
2022/02/19 13:09:57;;;;;;;2.37;1.10;;;8.00;99.80;;;;;;4455348;32;20177;-71
2022/02/19 13:12:31;;;;;;;2.97;1.17;;;8.20;98.50;;;;;;4455194;32;20176;-72
2022/02/19 13:15:00;;;;;;;3.83;1.20;;;8.20;98.30;;;;;;4453194;32;20182;-72